sensor_id;sensor_type;location;lat;lon;timestamp;P1;durP1;ratioP1;P2;durP2;ratioP2
42000;SDS011;27689;48.390;10.856;2024-02-15T00:02:17;5.30;;;2.60;;
42000;SDS011;27689;48.390;10.856;2024-02-15T00:05:01;4.60;;;2.40;;
42000;SDS011;27689;48.390;10.856;2024-02-15T00:07:45;4.23;;;2.73;;
42000;SDS011;27689;48.390;10.856;2024-02-15T00:10:32;5.43;;;2.60;;
42000;SDS011;27689;48.390;10.856;2024-02-15T00:13:16;4.20;;;2.53;;
42000;SDS011;27689;48.390;10.856;2024-02-15T00:16:00;4.43;;;2.47;;
42000;SDS011;27689;48.390;10.856;2024-02-15T00:18:44;3.85;;;2.50;;
42000;SDS011;27689;48.390;10.856;2024-02-15T00:21:28;3.08;;;2.38;;
42000;SDS011;27689;48.390;10.856;2024-02-15T00:24:12;2.58;;;2.00;;
42000;SDS011;27689;48.390;10.856;2024-02-15T00:26:57;4.10;;;2.30;;
42000;SDS011;27689;48.390;10.856;2024-02-15T00:29:41;3.88;;;2.75;;
42000;SDS011;27689;48.390;10.856;2024-02-15T00:32:26;3.42;;;2.20;;
42000;SDS011;27689;48.390;10.856;2024-02-15T00:35:10;3.67;;;2.70;;
42000;SDS011;27689;48.390;10.856;2024-02-15T00:37:54;3.05;;;2.08;;
42000;SDS011;27689;48.390;10.856;2024-02-15T00:40:38;3.72;;;2.33;;
42000;SDS011;27689;48.390;10.856;2024-02-15T00:43:23;3.00;;;2.20;;
42000;SDS011;27689;48.390;10.856;2024-02-15T00:46:07;3.13;;;2.10;;
42000;SDS011;27689;48.390;10.856;2024-02-15T00:48:51;2.72;;;2.00;;
42000;SDS011;27689;48.390;10.856;2024-02-15T00:51:35;4.83;;;2.63;;
42000;SDS011;27689;48.390;10.856;2024-02-15T00:54:20;2.55;;;2.00;;
42000;SDS011;27689;48.390;10.856;2024-02-15T00:57:04;4.15;;;2.00;;
42000;SDS011;27689;48.390;10.856;2024-02-15T00:59:48;3.78;;;2.50;;
42000;SDS011;27689;48.390;10.856;2024-02-15T01:02:32;2.83;;;1.88;;
42000;SDS011;27689;48.390;10.856;2024-02-15T01:05:16;4.30;;;2.33;;
42000;SDS011;27689;48.390;10.856;2024-02-15T01:08:00;4.38;;;2.50;;
42000;SDS011;27689;48.390;10.856;2024-02-15T01:10:44;3.08;;;2.13;;
42000;SDS011;27689;48.390;10.856;2024-02-15T01:13:29;3.20;;;2.38;;
42000;SDS011;27689;48.390;10.856;2024-02-15T01:16:13;3.55;;;2.50;;
42000;SDS011;27689;48.390;10.856;2024-02-15T01:18:58;3.45;;;2.50;;
42000;SDS011;27689;48.390;10.856;2024-02-15T01:21:41;3.28;;;2.10;;
42000;SDS011;27689;48.390;10.856;2024-02-15T01:24:27;2.95;;;2.10;;
42000;SDS011;27689;48.390;10.856;2024-02-15T01:27:11;4.40;;;2.70;;
42000;SDS011;27689;48.390;10.856;2024-02-15T01:29:56;3.90;;;2.40;;
42000;SDS011;27689;48.390;10.856;2024-02-15T01:35:26;3.40;;;2.30;;
42000;SDS011;27689;48.390;10.856;2024-02-15T01:38:10;4.97;;;2.92;;
42000;SDS011;27689;48.390;10.856;2024-02-15T01:40:54;2.93;;;2.50;;
42000;SDS011;27689;48.390;10.856;2024-02-15T01:43:42;3.40;;;2.20;;
42000;SDS011;27689;48.390;10.856;2024-02-15T01:46:27;5.47;;;2.70;;
42000;SDS011;27689;48.390;10.856;2024-02-15T01:49:13;5.90;;;2.33;;
42000;SDS011;27689;48.390;10.856;2024-02-15T01:51:57;3.08;;;2.40;;
42000;SDS011;27689;48.390;10.856;2024-02-15T01:54:44;3.47;;;2.15;;
42000;SDS011;27689;48.390;10.856;2024-02-15T01:57:29;4.20;;;2.50;;
42000;SDS011;27689;48.390;10.856;2024-02-15T02:00:17;4.28;;;2.60;;
42000;SDS011;27689;48.390;10.856;2024-02-15T02:03:02;3.40;;;2.50;;
42000;SDS011;27689;48.390;10.856;2024-02-15T02:05:46;4.32;;;2.55;;
42000;SDS011;27689;48.390;10.856;2024-02-15T02:08:30;3.67;;;2.27;;
42000;SDS011;27689;48.390;10.856;2024-02-15T02:11:14;4.97;;;2.53;;
42000;SDS011;27689;48.390;10.856;2024-02-15T02:13:58;5.10;;;2.40;;
42000;SDS011;27689;48.390;10.856;2024-02-15T02:16:42;3.43;;;2.10;;
42000;SDS011;27689;48.390;10.856;2024-02-15T02:19:26;3.92;;;2.35;;
42000;SDS011;27689;48.390;10.856;2024-02-15T02:22:11;3.40;;;2.13;;
42000;SDS011;27689;48.390;10.856;2024-02-15T02:25:03;5.37;;;2.40;;
42000;SDS011;27689;48.390;10.856;2024-02-15T02:27:49;3.00;;;2.10;;
42000;SDS011;27689;48.390;10.856;2024-02-15T02:30:34;3.05;;;1.95;;
42000;SDS011;27689;48.390;10.856;2024-02-15T02:33:18;3.30;;;2.40;;
42000;SDS011;27689;48.390;10.856;2024-02-15T02:36:02;3.67;;;2.50;;
42000;SDS011;27689;48.390;10.856;2024-02-15T02:38:46;5.55;;;2.42;;
42000;SDS011;27689;48.390;10.856;2024-02-15T02:41:33;3.72;;;2.22;;
42000;SDS011;27689;48.390;10.856;2024-02-15T02:44:17;4.03;;;2.43;;
42000;SDS011;27689;48.390;10.856;2024-02-15T02:47:01;3.73;;;2.10;;
42000;SDS011;27689;48.390;10.856;2024-02-15T02:49:45;2.92;;;2.47;;
42000;SDS011;27689;48.390;10.856;2024-02-15T02:52:29;3.70;;;2.60;;
42000;SDS011;27689;48.390;10.856;2024-02-15T02:55:13;4.03;;;2.00;;
42000;SDS011;27689;48.390;10.856;2024-02-15T02:57:57;3.37;;;2.40;;
42000;SDS011;27689;48.390;10.856;2024-02-15T03:00:40;5.15;;;2.35;;
42000;SDS011;27689;48.390;10.856;2024-02-15T03:03:24;3.95;;;2.50;;
42000;SDS011;27689;48.390;10.856;2024-02-15T03:06:08;3.60;;;2.60;;
42000;SDS011;27689;48.390;10.856;2024-02-15T03:08:52;3.20;;;2.47;;
42000;SDS011;27689;48.390;10.856;2024-02-15T03:11:39;3.38;;;2.10;;
42000;SDS011;27689;48.390;10.856;2024-02-15T03:14:23;4.77;;;2.20;;
42000;SDS011;27689;48.390;10.856;2024-02-15T03:17:07;2.88;;;1.98;;
42000;SDS011;27689;48.390;10.856;2024-02-15T03:22:35;2.80;;;2.10;;
42000;SDS011;27689;48.390;10.856;2024-02-15T03:25:22;3.20;;;2.15;;
42000;SDS011;27689;48.390;10.856;2024-02-15T03:28:10;3.30;;;2.25;;
42000;SDS011;27689;48.390;10.856;2024-02-15T03:30:53;3.00;;;2.17;;
42000;SDS011;27689;48.390;10.856;2024-02-15T03:33:39;4.63;;;2.38;;
42000;SDS011;27689;48.390;10.856;2024-02-15T03:36:23;2.75;;;2.25;;
42000;SDS011;27689;48.390;10.856;2024-02-15T03:39:07;3.73;;;2.10;;
42000;SDS011;27689;48.390;10.856;2024-02-15T03:44:37;3.65;;;2.40;;
42000;SDS011;27689;48.390;10.856;2024-02-15T03:50:07;2.55;;;2.03;;
42000;SDS011;27689;48.390;10.856;2024-02-15T03:52:53;4.25;;;2.38;;
42000;SDS011;27689;48.390;10.856;2024-02-15T03:58:22;2.72;;;2.00;;
42000;SDS011;27689;48.390;10.856;2024-02-15T04:01:06;3.13;;;2.17;;
42000;SDS011;27689;48.390;10.856;2024-02-15T04:03:53;3.20;;;2.20;;
42000;SDS011;27689;48.390;10.856;2024-02-15T04:06:39;2.45;;;1.92;;
42000;SDS011;27689;48.390;10.856;2024-02-15T04:09:27;3.53;;;2.30;;
42000;SDS011;27689;48.390;10.856;2024-02-15T04:12:14;2.65;;;2.10;;
42000;SDS011;27689;48.390;10.856;2024-02-15T04:14:58;4.68;;;2.35;;
42000;SDS011;27689;48.390;10.856;2024-02-15T04:17:57;2.95;;;1.98;;
42000;SDS011;27689;48.390;10.856;2024-02-15T04:20:43;2.85;;;2.13;;
42000;SDS011;27689;48.390;10.856;2024-02-15T04:23:33;3.17;;;1.95;;
42000;SDS011;27689;48.390;10.856;2024-02-15T04:26:19;5.38;;;2.78;;
42000;SDS011;27689;48.390;10.856;2024-02-15T04:29:07;10.18;;;4.45;;
42000;SDS011;27689;48.390;10.856;2024-02-15T04:31:54;5.63;;;3.17;;
42000;SDS011;27689;48.390;10.856;2024-02-15T04:34:51;5.88;;;3.40;;
42000;SDS011;27689;48.390;10.856;2024-02-15T04:37:53;4.50;;;2.67;;
42000;SDS011;27689;48.390;10.856;2024-02-15T04:40:48;4.60;;;2.92;;
42000;SDS011;27689;48.390;10.856;2024-02-15T04:46:30;5.05;;;3.00;;
42000;SDS011;27689;48.390;10.856;2024-02-15T04:49:18;3.05;;;2.35;;
42000;SDS011;27689;48.390;10.856;2024-02-15T04:52:08;4.40;;;2.40;;
42000;SDS011;27689;48.390;10.856;2024-02-15T04:54:54;4.25;;;2.30;;
42000;SDS011;27689;48.390;10.856;2024-02-15T04:57:46;4.03;;;2.50;;
42000;SDS011;27689;48.390;10.856;2024-02-15T05:00:43;3.72;;;2.40;;
42000;SDS011;27689;48.390;10.856;2024-02-15T05:03:30;4.65;;;3.30;;
42000;SDS011;27689;48.390;10.856;2024-02-15T05:06:18;5.78;;;3.20;;
42000;SDS011;27689;48.390;10.856;2024-02-15T05:09:03;4.43;;;3.38;;
42000;SDS011;27689;48.390;10.856;2024-02-15T05:11:54;4.43;;;3.60;;
42000;SDS011;27689;48.390;10.856;2024-02-15T05:14:38;4.60;;;3.78;;
42000;SDS011;27689;48.390;10.856;2024-02-15T05:17:23;4.93;;;3.90;;
42000;SDS011;27689;48.390;10.856;2024-02-15T05:20:08;5.38;;;3.53;;
42000;SDS011;27689;48.390;10.856;2024-02-15T05:22:55;6.07;;;3.90;;
42000;SDS011;27689;48.390;10.856;2024-02-15T05:25:39;5.55;;;3.92;;
42000;SDS011;27689;48.390;10.856;2024-02-15T05:28:23;7.90;;;4.17;;
42000;SDS011;27689;48.390;10.856;2024-02-15T05:31:11;5.70;;;4.30;;
42000;SDS011;27689;48.390;10.856;2024-02-15T05:34:01;5.75;;;3.83;;
42000;SDS011;27689;48.390;10.856;2024-02-15T05:36:45;5.55;;;3.40;;
42000;SDS011;27689;48.390;10.856;2024-02-15T05:39:29;7.13;;;3.78;;
42000;SDS011;27689;48.390;10.856;2024-02-15T05:42:13;5.43;;;3.50;;
42000;SDS011;27689;48.390;10.856;2024-02-15T05:45:03;6.68;;;4.13;;
42000;SDS011;27689;48.390;10.856;2024-02-15T05:48:13;4.05;;;3.20;;
42000;SDS011;27689;48.390;10.856;2024-02-15T05:50:57;5.35;;;3.33;;
42000;SDS011;27689;48.390;10.856;2024-02-15T05:53:43;6.32;;;4.38;;
42000;SDS011;27689;48.390;10.856;2024-02-15T05:56:27;8.20;;;3.80;;
42000;SDS011;27689;48.390;10.856;2024-02-15T05:59:12;4.88;;;3.70;;
42000;SDS011;27689;48.390;10.856;2024-02-15T06:01:56;8.00;;;4.20;;
42000;SDS011;27689;48.390;10.856;2024-02-15T06:04:40;8.18;;;4.68;;
42000;SDS011;27689;48.390;10.856;2024-02-15T06:07:25;9.50;;;5.65;;
42000;SDS011;27689;48.390;10.856;2024-02-15T06:10:09;11.05;;;5.97;;
42000;SDS011;27689;48.390;10.856;2024-02-15T06:12:53;10.02;;;6.07;;
42000;SDS011;27689;48.390;10.856;2024-02-15T06:15:37;8.88;;;5.65;;
42000;SDS011;27689;48.390;10.856;2024-02-15T06:18:24;7.05;;;5.00;;
42000;SDS011;27689;48.390;10.856;2024-02-15T06:21:11;9.07;;;5.53;;
42000;SDS011;27689;48.390;10.856;2024-02-15T06:23:55;7.07;;;5.25;;
42000;SDS011;27689;48.390;10.856;2024-02-15T06:26:39;5.82;;;4.43;;
42000;SDS011;27689;48.390;10.856;2024-02-15T06:29:23;6.53;;;4.68;;
42000;SDS011;27689;48.390;10.856;2024-02-15T06:32:25;6.25;;;4.15;;
42000;SDS011;27689;48.390;10.856;2024-02-15T06:35:30;6.13;;;4.10;;
42000;SDS011;27689;48.390;10.856;2024-02-15T06:38:43;5.97;;;4.18;;
42000;SDS011;27689;48.390;10.856;2024-02-15T06:41:45;6.10;;;4.40;;
42000;SDS011;27689;48.390;10.856;2024-02-15T06:44:29;5.53;;;4.00;;
42000;SDS011;27689;48.390;10.856;2024-02-15T06:47:13;5.93;;;4.13;;
42000;SDS011;27689;48.390;10.856;2024-02-15T06:50:01;7.00;;;4.38;;
42000;SDS011;27689;48.390;10.856;2024-02-15T06:52:45;6.20;;;3.78;;
42000;SDS011;27689;48.390;10.856;2024-02-15T06:55:29;5.72;;;3.55;;
42000;SDS011;27689;48.390;10.856;2024-02-15T06:58:17;5.03;;;3.58;;
42000;SDS011;27689;48.390;10.856;2024-02-15T07:01:01;5.43;;;3.72;;
42000;SDS011;27689;48.390;10.856;2024-02-15T07:03:46;5.03;;;3.75;;
42000;SDS011;27689;48.390;10.856;2024-02-15T07:06:31;4.97;;;3.40;;
42000;SDS011;27689;48.390;10.856;2024-02-15T07:09:15;5.55;;;3.70;;
42000;SDS011;27689;48.390;10.856;2024-02-15T07:12:01;9.20;;;4.85;;
42000;SDS011;27689;48.390;10.856;2024-02-15T07:14:45;10.00;;;4.97;;
42000;SDS011;27689;48.390;10.856;2024-02-15T07:17:30;6.25;;;5.00;;
42000;SDS011;27689;48.390;10.856;2024-02-15T07:20:14;8.93;;;4.68;;
42000;SDS011;27689;48.390;10.856;2024-02-15T07:23:00;11.35;;;5.25;;
42000;SDS011;27689;48.390;10.856;2024-02-15T07:25:44;6.80;;;4.65;;
42000;SDS011;27689;48.390;10.856;2024-02-15T07:28:32;6.82;;;4.40;;
42000;SDS011;27689;48.390;10.856;2024-02-15T07:31:16;7.18;;;4.30;;
42000;SDS011;27689;48.390;10.856;2024-02-15T07:34:00;7.00;;;3.83;;
42000;SDS011;27689;48.390;10.856;2024-02-15T07:36:43;7.00;;;4.67;;
42000;SDS011;27689;48.390;10.856;2024-02-15T07:39:28;8.00;;;3.95;;
42000;SDS011;27689;48.390;10.856;2024-02-15T07:42:12;5.93;;;4.10;;
42000;SDS011;27689;48.390;10.856;2024-02-15T07:44:56;8.52;;;4.30;;
42000;SDS011;27689;48.390;10.856;2024-02-15T07:47:40;7.87;;;4.63;;
42000;SDS011;27689;48.390;10.856;2024-02-15T07:50:24;9.63;;;4.10;;
42000;SDS011;27689;48.390;10.856;2024-02-15T07:53:08;7.18;;;4.13;;
42000;SDS011;27689;48.390;10.856;2024-02-15T07:55:54;8.45;;;4.57;;
42000;SDS011;27689;48.390;10.856;2024-02-15T07:58:47;6.38;;;3.72;;
42000;SDS011;27689;48.390;10.856;2024-02-15T08:01:32;9.05;;;5.07;;
42000;SDS011;27689;48.390;10.856;2024-02-15T08:04:17;6.90;;;4.32;;
42000;SDS011;27689;48.390;10.856;2024-02-15T08:07:01;10.52;;;4.38;;
42000;SDS011;27689;48.390;10.856;2024-02-15T08:09:46;5.22;;;3.95;;
42000;SDS011;27689;48.390;10.856;2024-02-15T08:12:30;6.57;;;4.28;;
42000;SDS011;27689;48.390;10.856;2024-02-15T08:15:14;5.85;;;3.80;;
42000;SDS011;27689;48.390;10.856;2024-02-15T08:17:58;8.68;;;4.28;;
42000;SDS011;27689;48.390;10.856;2024-02-15T08:20:42;10.03;;;4.13;;
42000;SDS011;27689;48.390;10.856;2024-02-15T08:23:28;41.40;;;7.28;;
42000;SDS011;27689;48.390;10.856;2024-02-15T08:26:12;42.10;;;6.17;;
42000;SDS011;27689;48.390;10.856;2024-02-15T08:28:56;8.23;;;3.90;;
42000;SDS011;27689;48.390;10.856;2024-02-15T08:31:40;5.50;;;3.27;;
42000;SDS011;27689;48.390;10.856;2024-02-15T08:34:25;5.13;;;3.50;;
42000;SDS011;27689;48.390;10.856;2024-02-15T08:37:09;6.93;;;3.60;;
42000;SDS011;27689;48.390;10.856;2024-02-15T08:39:53;4.95;;;3.35;;
42000;SDS011;27689;48.390;10.856;2024-02-15T08:42:38;5.93;;;3.37;;
42000;SDS011;27689;48.390;10.856;2024-02-15T08:45:25;7.65;;;2.95;;
42000;SDS011;27689;48.390;10.856;2024-02-15T08:48:10;5.50;;;3.13;;
42000;SDS011;27689;48.390;10.856;2024-02-15T08:53:38;6.60;;;3.40;;
42000;SDS011;27689;48.390;10.856;2024-02-15T08:56:22;7.13;;;3.37;;
42000;SDS011;27689;48.390;10.856;2024-02-15T08:59:09;6.78;;;2.95;;
42000;SDS011;27689;48.390;10.856;2024-02-15T09:01:53;6.33;;;2.93;;
42000;SDS011;27689;48.390;10.856;2024-02-15T09:04:38;5.95;;;3.45;;
42000;SDS011;27689;48.390;10.856;2024-02-15T10:46:44;6.05;;;1.75;;
42000;SDS011;27689;48.390;10.856;2024-02-15T10:49:30;5.22;;;1.95;;
42000;SDS011;27689;48.390;10.856;2024-02-15T10:52:14;3.95;;;2.30;;
42000;SDS011;27689;48.390;10.856;2024-02-15T10:55:03;4.15;;;1.60;;
42000;SDS011;27689;48.390;10.856;2024-02-15T10:57:49;3.10;;;1.45;;
42000;SDS011;27689;48.390;10.856;2024-02-15T11:00:34;2.85;;;1.40;;
42000;SDS011;27689;48.390;10.856;2024-02-15T11:03:25;3.33;;;1.30;;
42000;SDS011;27689;48.390;10.856;2024-02-15T11:06:12;5.38;;;2.17;;
42000;SDS011;27689;48.390;10.856;2024-02-15T11:08:59;7.28;;;2.13;;
42000;SDS011;27689;48.390;10.856;2024-02-15T11:14:31;3.00;;;1.92;;
42000;SDS011;27689;48.390;10.856;2024-02-15T11:23:23;5.60;;;2.20;;
42000;SDS011;27689;48.390;10.856;2024-02-15T11:26:10;6.85;;;2.30;;
42000;SDS011;27689;48.390;10.856;2024-02-15T11:30:00;3.38;;;1.80;;
42000;SDS011;27689;48.390;10.856;2024-02-15T11:32:47;4.57;;;1.90;;
42000;SDS011;27689;48.390;10.856;2024-02-15T11:35:39;3.03;;;2.08;;
42000;SDS011;27689;48.390;10.856;2024-02-15T11:38:51;4.72;;;2.20;;
42000;SDS011;27689;48.390;10.856;2024-02-15T11:41:35;2.33;;;1.73;;
42000;SDS011;27689;48.390;10.856;2024-02-15T11:44:20;2.47;;;1.80;;
42000;SDS011;27689;48.390;10.856;2024-02-15T11:47:07;3.20;;;1.60;;
42000;SDS011;27689;48.390;10.856;2024-02-15T11:49:55;3.35;;;1.60;;
42000;SDS011;27689;48.390;10.856;2024-02-15T11:52:39;2.47;;;1.50;;
42000;SDS011;27689;48.390;10.856;2024-02-15T11:55:32;2.83;;;1.67;;
42000;SDS011;27689;48.390;10.856;2024-02-15T11:58:23;3.90;;;1.80;;
42000;SDS011;27689;48.390;10.856;2024-02-15T12:01:14;1.75;;;1.02;;
42000;SDS011;27689;48.390;10.856;2024-02-15T12:04:18;3.10;;;1.20;;
42000;SDS011;27689;48.390;10.856;2024-02-15T12:07:21;2.30;;;1.00;;
42000;SDS011;27689;48.390;10.856;2024-02-15T12:12:55;2.80;;;1.17;;
42000;SDS011;27689;48.390;10.856;2024-02-15T12:16:01;2.83;;;1.17;;
42000;SDS011;27689;48.390;10.856;2024-02-15T12:19:04;1.33;;;0.98;;
42000;SDS011;27689;48.390;10.856;2024-02-15T12:21:48;4.63;;;1.70;;
42000;SDS011;27689;48.390;10.856;2024-02-15T12:24:32;2.35;;;1.20;;
42000;SDS011;27689;48.390;10.856;2024-02-15T12:27:16;2.35;;;1.10;;
42000;SDS011;27689;48.390;10.856;2024-02-15T12:30:01;2.47;;;1.23;;
42000;SDS011;27689;48.390;10.856;2024-02-15T12:32:45;3.10;;;1.35;;
42000;SDS011;27689;48.390;10.856;2024-02-15T12:35:32;1.75;;;0.85;;
42000;SDS011;27689;48.390;10.856;2024-02-15T12:38:16;3.00;;;1.10;;
42000;SDS011;27689;48.390;10.856;2024-02-15T12:41:00;4.07;;;1.10;;
42000;SDS011;27689;48.390;10.856;2024-02-15T12:43:45;2.35;;;0.90;;
42000;SDS011;27689;48.390;10.856;2024-02-15T12:55:24;1.77;;;0.80;;
42000;SDS011;27689;48.390;10.856;2024-02-15T12:58:12;3.55;;;1.00;;
42000;SDS011;27689;48.390;10.856;2024-02-15T13:00:58;2.40;;;1.10;;
42000;SDS011;27689;48.390;10.856;2024-02-15T13:03:44;2.25;;;1.40;;
42000;SDS011;27689;48.390;10.856;2024-02-15T13:06:28;3.33;;;1.42;;
42000;SDS011;27689;48.390;10.856;2024-02-15T13:09:12;2.13;;;1.30;;
42000;SDS011;27689;48.390;10.856;2024-02-15T13:11:56;1.65;;;1.05;;
42000;SDS011;27689;48.390;10.856;2024-02-15T13:14:41;3.13;;;1.30;;
42000;SDS011;27689;48.390;10.856;2024-02-15T13:17:26;2.15;;;1.35;;
42000;SDS011;27689;48.390;10.856;2024-02-15T13:20:10;1.55;;;1.08;;
42000;SDS011;27689;48.390;10.856;2024-02-15T13:22:57;5.40;;;1.10;;
42000;SDS011;27689;48.390;10.856;2024-02-15T13:25:46;3.05;;;1.42;;
42000;SDS011;27689;48.390;10.856;2024-02-15T13:28:30;3.33;;;1.55;;
42000;SDS011;27689;48.390;10.856;2024-02-15T13:31:14;2.30;;;1.20;;
42000;SDS011;27689;48.390;10.856;2024-02-15T13:36:34;2.78;;;1.38;;
42000;SDS011;27689;48.390;10.856;2024-02-15T13:39:18;5.13;;;1.50;;
42000;SDS011;27689;48.390;10.856;2024-02-15T13:42:05;3.72;;;1.20;;
42000;SDS011;27689;48.390;10.856;2024-02-15T13:44:49;2.83;;;1.13;;
42000;SDS011;27689;48.390;10.856;2024-02-15T13:47:33;4.50;;;1.35;;
42000;SDS011;27689;48.390;10.856;2024-02-15T13:50:19;2.42;;;1.00;;
42000;SDS011;27689;48.390;10.856;2024-02-15T13:53:03;1.75;;;0.80;;
42000;SDS011;27689;48.390;10.856;2024-02-15T13:55:48;2.03;;;1.20;;
42000;SDS011;27689;48.390;10.856;2024-02-15T14:01:17;2.63;;;1.05;;
42000;SDS011;27689;48.390;10.856;2024-02-15T14:06:47;1.75;;;1.10;;
42000;SDS011;27689;48.390;10.856;2024-02-15T14:09:32;2.65;;;1.30;;
42000;SDS011;27689;48.390;10.856;2024-02-15T14:12:16;3.13;;;1.33;;
42000;SDS011;27689;48.390;10.856;2024-02-15T14:15:01;2.55;;;0.95;;
42000;SDS011;27689;48.390;10.856;2024-02-15T14:20:32;1.60;;;1.02;;
42000;SDS011;27689;48.390;10.856;2024-02-15T14:23:17;2.53;;;1.00;;
42000;SDS011;27689;48.390;10.856;2024-02-15T14:26:01;3.38;;;1.40;;
42000;SDS011;27689;48.390;10.856;2024-02-15T14:28:46;1.70;;;0.95;;
42000;SDS011;27689;48.390;10.856;2024-02-15T14:31:30;4.40;;;1.08;;
42000;SDS011;27689;48.390;10.856;2024-02-15T14:34:32;8.02;;;1.52;;
42000;SDS011;27689;48.390;10.856;2024-02-15T14:37:19;5.28;;;1.33;;
42000;SDS011;27689;48.390;10.856;2024-02-15T14:40:06;2.33;;;1.30;;
42000;SDS011;27689;48.390;10.856;2024-02-15T14:42:50;4.22;;;1.40;;
42000;SDS011;27689;48.390;10.856;2024-02-15T14:45:34;1.90;;;1.02;;
42000;SDS011;27689;48.390;10.856;2024-02-15T14:48:21;2.20;;;1.20;;
42000;SDS011;27689;48.390;10.856;2024-02-15T14:51:07;4.53;;;1.27;;
42000;SDS011;27689;48.390;10.856;2024-02-15T14:56:36;1.92;;;1.00;;
42000;SDS011;27689;48.390;10.856;2024-02-15T14:59:21;1.90;;;1.05;;
42000;SDS011;27689;48.390;10.856;2024-02-15T15:02:05;1.65;;;1.10;;
42000;SDS011;27689;48.390;10.856;2024-02-15T15:04:52;1.25;;;0.80;;
42000;SDS011;27689;48.390;10.856;2024-02-15T15:07:55;3.45;;;0.82;;
42000;SDS011;27689;48.390;10.856;2024-02-15T15:10:58;4.13;;;1.17;;
42000;SDS011;27689;48.390;10.856;2024-02-15T15:14:00;4.72;;;1.30;;
42000;SDS011;27689;48.390;10.856;2024-02-15T15:16:45;3.22;;;1.50;;
42000;SDS011;27689;48.390;10.856;2024-02-15T15:19:29;2.42;;;1.10;;
42000;SDS011;27689;48.390;10.856;2024-02-15T15:22:14;7.57;;;2.80;;
42000;SDS011;27689;48.390;10.856;2024-02-15T15:24:57;2.92;;;1.83;;
42000;SDS011;27689;48.390;10.856;2024-02-15T15:27:41;5.40;;;1.90;;
42000;SDS011;27689;48.390;10.856;2024-02-15T15:30:25;4.68;;;1.67;;
42000;SDS011;27689;48.390;10.856;2024-02-15T15:33:10;3.33;;;1.30;;
42000;SDS011;27689;48.390;10.856;2024-02-15T15:35:54;4.00;;;2.10;;
42000;SDS011;27689;48.390;10.856;2024-02-15T15:38:38;6.22;;;1.90;;
42000;SDS011;27689;48.390;10.856;2024-02-15T15:41:23;3.10;;;1.60;;
42000;SDS011;27689;48.390;10.856;2024-02-15T15:44:07;2.73;;;1.30;;
42000;SDS011;27689;48.390;10.856;2024-02-15T15:46:51;8.10;;;1.38;;
42000;SDS011;27689;48.390;10.856;2024-02-15T15:49:35;6.37;;;1.57;;
42000;SDS011;27689;48.390;10.856;2024-02-15T15:52:19;5.37;;;1.40;;
42000;SDS011;27689;48.390;10.856;2024-02-15T15:55:04;4.20;;;1.60;;
42000;SDS011;27689;48.390;10.856;2024-02-15T15:57:54;3.60;;;1.70;;
42000;SDS011;27689;48.390;10.856;2024-02-15T16:00:39;2.97;;;1.48;;
42000;SDS011;27689;48.390;10.856;2024-02-15T16:03:22;2.00;;;1.23;;
42000;SDS011;27689;48.390;10.856;2024-02-15T16:06:06;3.72;;;1.80;;
42000;SDS011;27689;48.390;10.856;2024-02-15T16:08:51;5.20;;;2.08;;
42000;SDS011;27689;48.390;10.856;2024-02-15T16:11:36;3.55;;;1.52;;
42000;SDS011;27689;48.390;10.856;2024-02-15T16:14:20;2.83;;;1.15;;
42000;SDS011;27689;48.390;10.856;2024-02-15T16:17:05;2.80;;;1.75;;
42000;SDS011;27689;48.390;10.856;2024-02-15T16:19:51;3.80;;;1.58;;
42000;SDS011;27689;48.390;10.856;2024-02-15T16:22:35;5.50;;;1.60;;
42000;SDS011;27689;48.390;10.856;2024-02-15T16:25:21;4.63;;;1.48;;
42000;SDS011;27689;48.390;10.856;2024-02-15T16:28:05;2.92;;;1.58;;
42000;SDS011;27689;48.390;10.856;2024-02-15T16:30:49;3.17;;;1.60;;
42000;SDS011;27689;48.390;10.856;2024-02-15T16:33:33;2.97;;;1.50;;
42000;SDS011;27689;48.390;10.856;2024-02-15T16:36:17;5.30;;;1.52;;
42000;SDS011;27689;48.390;10.856;2024-02-15T16:39:01;5.85;;;1.50;;
42000;SDS011;27689;48.390;10.856;2024-02-15T16:41:48;3.33;;;2.22;;
42000;SDS011;27689;48.390;10.856;2024-02-15T16:44:34;6.95;;;3.75;;
42000;SDS011;27689;48.390;10.856;2024-02-15T16:47:18;7.70;;;5.03;;
42000;SDS011;27689;48.390;10.856;2024-02-15T16:50:02;7.00;;;4.45;;
42000;SDS011;27689;48.390;10.856;2024-02-15T16:52:51;7.97;;;4.55;;
42000;SDS011;27689;48.390;10.856;2024-02-15T16:55:34;6.22;;;4.32;;
42000;SDS011;27689;48.390;10.856;2024-02-15T16:58:19;5.45;;;3.60;;
42000;SDS011;27689;48.390;10.856;2024-02-15T17:01:05;7.85;;;3.88;;
42000;SDS011;27689;48.390;10.856;2024-02-15T17:03:49;6.25;;;3.55;;
42000;SDS011;27689;48.390;10.856;2024-02-15T17:09:18;9.07;;;5.32;;
42000;SDS011;27689;48.390;10.856;2024-02-15T17:12:02;8.93;;;4.47;;
42000;SDS011;27689;48.390;10.856;2024-02-15T17:14:49;6.45;;;4.05;;
42000;SDS011;27689;48.390;10.856;2024-02-15T17:17:33;6.18;;;3.95;;
42000;SDS011;27689;48.390;10.856;2024-02-15T17:20:18;4.72;;;3.45;;
42000;SDS011;27689;48.390;10.856;2024-02-15T17:23:03;4.63;;;3.10;;
42000;SDS011;27689;48.390;10.856;2024-02-15T17:25:47;3.85;;;2.90;;
42000;SDS011;27689;48.390;10.856;2024-02-15T17:28:31;4.10;;;2.80;;
42000;SDS011;27689;48.390;10.856;2024-02-15T17:31:15;4.25;;;2.53;;
42000;SDS011;27689;48.390;10.856;2024-02-15T17:33:59;4.63;;;2.70;;
42000;SDS011;27689;48.390;10.856;2024-02-15T17:36:45;4.57;;;3.40;;
42000;SDS011;27689;48.390;10.856;2024-02-15T17:39:29;6.15;;;3.50;;
42000;SDS011;27689;48.390;10.856;2024-02-15T17:42:13;11.32;;;3.92;;
42000;SDS011;27689;48.390;10.856;2024-02-15T17:44:57;6.45;;;3.80;;
42000;SDS011;27689;48.390;10.856;2024-02-15T17:47:41;5.67;;;4.70;;
42000;SDS011;27689;48.390;10.856;2024-02-15T17:50:28;7.78;;;4.78;;
42000;SDS011;27689;48.390;10.856;2024-02-15T17:53:12;8.10;;;3.80;;
42000;SDS011;27689;48.390;10.856;2024-02-15T17:55:55;6.82;;;3.22;;
42000;SDS011;27689;48.390;10.856;2024-02-15T17:58:42;7.35;;;3.78;;
42000;SDS011;27689;48.390;10.856;2024-02-15T18:01:31;8.25;;;3.88;;
42000;SDS011;27689;48.390;10.856;2024-02-15T18:04:18;9.18;;;5.10;;
42000;SDS011;27689;48.390;10.856;2024-02-15T18:07:03;11.27;;;7.60;;
42000;SDS011;27689;48.390;10.856;2024-02-15T18:09:47;26.83;;;16.60;;
42000;SDS011;27689;48.390;10.856;2024-02-15T18:12:34;19.85;;;11.95;;
42000;SDS011;27689;48.390;10.856;2024-02-15T18:15:18;14.77;;;8.95;;
42000;SDS011;27689;48.390;10.856;2024-02-15T18:18:06;12.32;;;7.50;;
42000;SDS011;27689;48.390;10.856;2024-02-15T18:20:51;11.20;;;6.07;;
42000;SDS011;27689;48.390;10.856;2024-02-15T18:23:35;10.23;;;5.80;;
42000;SDS011;27689;48.390;10.856;2024-02-15T18:26:20;8.85;;;5.47;;
42000;SDS011;27689;48.390;10.856;2024-02-15T18:29:04;10.00;;;5.30;;
42000;SDS011;27689;48.390;10.856;2024-02-15T18:31:49;8.45;;;5.45;;
42000;SDS011;27689;48.390;10.856;2024-02-15T18:34:36;8.98;;;5.10;;
42000;SDS011;27689;48.390;10.856;2024-02-15T18:37:20;9.32;;;4.57;;
42000;SDS011;27689;48.390;10.856;2024-02-15T18:40:04;7.37;;;4.23;;
42000;SDS011;27689;48.390;10.856;2024-02-15T18:42:50;7.47;;;3.50;;
42000;SDS011;27689;48.390;10.856;2024-02-15T18:45:35;5.60;;;3.17;;
42000;SDS011;27689;48.390;10.856;2024-02-15T18:48:20;6.45;;;3.20;;
42000;SDS011;27689;48.390;10.856;2024-02-15T18:51:04;6.20;;;3.63;;
42000;SDS011;27689;48.390;10.856;2024-02-15T18:53:48;5.85;;;4.30;;
42000;SDS011;27689;48.390;10.856;2024-02-15T18:56:32;6.45;;;4.57;;
42000;SDS011;27689;48.390;10.856;2024-02-15T18:59:16;8.95;;;4.47;;
42000;SDS011;27689;48.390;10.856;2024-02-15T19:02:02;12.63;;;5.30;;